sensor_id;sensor_type;location;lat;lon;timestamp;P1;durP1;ratioP1;P2;durP2;ratioP2
10315;SDS011;5203;48.976;8.306;2023-01-01T00:01:10;17.57;;;15.87;;
10315;SDS011;5203;48.976;8.306;2023-01-01T00:03:38;16.07;;;14.57;;
10315;SDS011;5203;48.976;8.306;2023-01-01T00:06:07;15.27;;;13.87;;
10315;SDS011;5203;48.976;8.306;2023-01-01T00:08:36;12.47;;;11.27;;
10315;SDS011;5203;48.976;8.306;2023-01-01T00:11:03;12.27;;;11.13;;
10315;SDS011;5203;48.976;8.306;2023-01-01T00:13:29;13.33;;;12.17;;
10315;SDS011;5203;48.976;8.306;2023-01-01T00:15:55;14.73;;;13.37;;
10315;SDS011;5203;48.976;8.306;2023-01-01T00:18:28;14.77;;;13.50;;
10315;SDS011;5203;48.976;8.306;2023-01-01T00:21:00;14.30;;;13.10;;
10315;SDS011;5203;48.976;8.306;2023-01-01T00:23:30;14.67;;;13.23;;
10315;SDS011;5203;48.976;8.306;2023-01-01T00:25:56;15.80;;;14.30;;
10315;SDS011;5203;48.976;8.306;2023-01-01T00:28:22;13.60;;;12.40;;
10315;SDS011;5203;48.976;8.306;2023-01-01T00:30:48;13.73;;;12.53;;
10315;SDS011;5203;48.976;8.306;2023-01-01T00:33:14;14.30;;;12.90;;
10315;SDS011;5203;48.976;8.306;2023-01-01T00:35:40;13.87;;;12.57;;
10315;SDS011;5203;48.976;8.306;2023-01-01T00:38:06;13.93;;;12.63;;
10315;SDS011;5203;48.976;8.306;2023-01-01T00:40:31;13.60;;;12.20;;
10315;SDS011;5203;48.976;8.306;2023-01-01T00:42:57;13.67;;;11.90;;
10315;SDS011;5203;48.976;8.306;2023-01-01T00:45:23;12.70;;;11.50;;
10315;SDS011;5203;48.976;8.306;2023-01-01T00:47:49;12.10;;;11.00;;
10315;SDS011;5203;48.976;8.306;2023-01-01T00:50:16;12.20;;;11.13;;
10315;SDS011;5203;48.976;8.306;2023-01-01T00:52:42;12.23;;;11.13;;
10315;SDS011;5203;48.976;8.306;2023-01-01T00:55:08;11.10;;;10.10;;
10315;SDS011;5203;48.976;8.306;2023-01-01T00:57:34;10.57;;;9.50;;
10315;SDS011;5203;48.976;8.306;2023-01-01T01:00:00;9.70;;;8.80;;
10315;SDS011;5203;48.976;8.306;2023-01-01T01:02:26;9.83;;;8.87;;
10315;SDS011;5203;48.976;8.306;2023-01-01T01:04:51;10.10;;;9.20;;
10315;SDS011;5203;48.976;8.306;2023-01-01T01:07:17;10.37;;;9.37;;
10315;SDS011;5203;48.976;8.306;2023-01-01T01:09:43;9.63;;;8.77;;
10315;SDS011;5203;48.976;8.306;2023-01-01T01:12:08;10.63;;;9.60;;
10315;SDS011;5203;48.976;8.306;2023-01-01T01:14:34;9.60;;;8.57;;
10315;SDS011;5203;48.976;8.306;2023-01-01T01:17:00;9.73;;;8.83;;
10315;SDS011;5203;48.976;8.306;2023-01-01T01:19:25;10.03;;;8.97;;
10315;SDS011;5203;48.976;8.306;2023-01-01T01:21:51;10.30;;;9.30;;
10315;SDS011;5203;48.976;8.306;2023-01-01T01:24:17;10.40;;;9.30;;
10315;SDS011;5203;48.976;8.306;2023-01-01T01:26:43;11.53;;;10.40;;
10315;SDS011;5203;48.976;8.306;2023-01-01T01:29:08;11.90;;;10.87;;
10315;SDS011;5203;48.976;8.306;2023-01-01T01:31:34;11.70;;;10.50;;
10315;SDS011;5203;48.976;8.306;2023-01-01T01:34:00;10.77;;;9.67;;
10315;SDS011;5203;48.976;8.306;2023-01-01T01:36:26;11.40;;;10.30;;
10315;SDS011;5203;48.976;8.306;2023-01-01T01:38:53;10.80;;;9.83;;
10315;SDS011;5203;48.976;8.306;2023-01-01T01:41:20;10.40;;;8.90;;
10315;SDS011;5203;48.976;8.306;2023-01-01T01:43:51;10.27;;;9.20;;
10315;SDS011;5203;48.976;8.306;2023-01-01T01:52:00;8.97;;;8.10;;
10315;SDS011;5203;48.976;8.306;2023-01-01T01:54:26;9.73;;;8.80;;
10315;SDS011;5203;48.976;8.306;2023-01-01T01:56:54;9.47;;;8.57;;
10315;SDS011;5203;48.976;8.306;2023-01-01T01:59:23;10.07;;;9.07;;
10315;SDS011;5203;48.976;8.306;2023-01-01T02:01:53;9.20;;;8.30;;
10315;SDS011;5203;48.976;8.306;2023-01-01T02:04:18;8.37;;;7.57;;
10315;SDS011;5203;48.976;8.306;2023-01-01T02:06:45;7.43;;;6.73;;
10315;SDS011;5203;48.976;8.306;2023-01-01T02:09:11;7.67;;;6.97;;
10315;SDS011;5203;48.976;8.306;2023-01-01T02:11:38;6.57;;;5.97;;
10315;SDS011;5203;48.976;8.306;2023-01-01T02:14:03;6.97;;;6.33;;
10315;SDS011;5203;48.976;8.306;2023-01-01T02:16:44;6.50;;;5.90;;
10315;SDS011;5203;48.976;8.306;2023-01-01T02:19:18;5.50;;;5.00;;
10315;SDS011;5203;48.976;8.306;2023-01-01T02:30:19;6.87;;;5.03;;
10315;SDS011;5203;48.976;8.306;2023-01-01T02:32:46;4.93;;;4.53;;
10315;SDS011;5203;48.976;8.306;2023-01-01T02:35:29;5.33;;;4.83;;
10315;SDS011;5203;48.976;8.306;2023-01-01T02:40:50;5.90;;;5.20;;
10315;SDS011;5203;48.976;8.306;2023-01-01T02:43:19;5.70;;;5.20;;
10315;SDS011;5203;48.976;8.306;2023-01-01T02:45:45;5.57;;;5.10;;
10315;SDS011;5203;48.976;8.306;2023-01-01T02:56:52;5.43;;;4.47;;
10315;SDS011;5203;48.976;8.306;2023-01-01T03:09:00;6.77;;;4.37;;
10315;SDS011;5203;48.976;8.306;2023-01-01T03:14:29;5.33;;;4.83;;
10315;SDS011;5203;48.976;8.306;2023-01-01T03:17:03;5.07;;;4.63;;
10315;SDS011;5203;48.976;8.306;2023-01-01T03:19:41;4.80;;;4.40;;
10315;SDS011;5203;48.976;8.306;2023-01-01T03:22:09;5.20;;;4.00;;
10315;SDS011;5203;48.976;8.306;2023-01-01T03:24:42;3.90;;;3.53;;
10315;SDS011;5203;48.976;8.306;2023-01-01T03:27:15;6.80;;;4.00;;
10315;SDS011;5203;48.976;8.306;2023-01-01T03:29:51;4.10;;;3.43;;
10315;SDS011;5203;48.976;8.306;2023-01-01T03:32:21;3.70;;;3.40;;
10315;SDS011;5203;48.976;8.306;2023-01-01T03:35:11;4.30;;;3.70;;
10315;SDS011;5203;48.976;8.306;2023-01-01T03:37:39;6.37;;;3.63;;
10315;SDS011;5203;48.976;8.306;2023-01-01T03:40:07;3.80;;;3.50;;
10315;SDS011;5203;48.976;8.306;2023-01-01T03:42:35;4.17;;;3.60;;
10315;SDS011;5203;48.976;8.306;2023-01-01T03:48:03;3.60;;;3.10;;
10315;SDS011;5203;48.976;8.306;2023-01-01T03:50:34;4.33;;;3.10;;
10315;SDS011;5203;48.976;8.306;2023-01-01T03:55:57;3.50;;;2.97;;
10315;SDS011;5203;48.976;8.306;2023-01-01T03:58:46;3.90;;;3.27;;
10315;SDS011;5203;48.976;8.306;2023-01-01T04:01:32;3.80;;;2.97;;
10315;SDS011;5203;48.976;8.306;2023-01-01T04:04:02;3.93;;;3.07;;
10315;SDS011;5203;48.976;8.306;2023-01-01T04:06:31;5.03;;;3.00;;
10315;SDS011;5203;48.976;8.306;2023-01-01T04:08:57;4.57;;;3.37;;
10315;SDS011;5203;48.976;8.306;2023-01-01T04:11:26;3.30;;;3.00;;
10315;SDS011;5203;48.976;8.306;2023-01-01T04:14:13;4.40;;;2.93;;
10315;SDS011;5203;48.976;8.306;2023-01-01T04:16:57;5.13;;;2.90;;
10315;SDS011;5203;48.976;8.306;2023-01-01T04:19:23;3.13;;;2.83;;
10315;SDS011;5203;48.976;8.306;2023-01-01T04:21:49;3.00;;;2.80;;
10315;SDS011;5203;48.976;8.306;2023-01-01T04:24:15;4.67;;;2.90;;
10315;SDS011;5203;48.976;8.306;2023-01-01T04:26:40;3.40;;;3.10;;
10315;SDS011;5203;48.976;8.306;2023-01-01T04:29:06;3.17;;;2.87;;
10315;SDS011;5203;48.976;8.306;2023-01-01T04:31:34;3.50;;;3.20;;
10315;SDS011;5203;48.976;8.306;2023-01-01T04:34:01;4.30;;;3.07;;
10315;SDS011;5203;48.976;8.306;2023-01-01T04:36:27;3.20;;;2.90;;
10315;SDS011;5203;48.976;8.306;2023-01-01T04:38:52;4.40;;;3.10;;
10315;SDS011;5203;48.976;8.306;2023-01-01T04:41:18;4.77;;;3.30;;
10315;SDS011;5203;48.976;8.306;2023-01-01T04:43:47;4.60;;;3.30;;
10315;SDS011;5203;48.976;8.306;2023-01-01T04:46:14;4.90;;;3.10;;
10315;SDS011;5203;48.976;8.306;2023-01-01T04:48:42;3.80;;;2.80;;
10315;SDS011;5203;48.976;8.306;2023-01-01T04:51:08;5.17;;;3.10;;
10315;SDS011;5203;48.976;8.306;2023-01-01T04:53:35;4.53;;;2.83;;
10315;SDS011;5203;48.976;8.306;2023-01-01T04:58:34;4.00;;;2.80;;
10315;SDS011;5203;48.976;8.306;2023-01-01T05:01:01;4.83;;;2.50;;
10315;SDS011;5203;48.976;8.306;2023-01-01T05:03:28;3.33;;;3.00;;
10315;SDS011;5203;48.976;8.306;2023-01-01T05:06:00;3.67;;;2.87;;
10315;SDS011;5203;48.976;8.306;2023-01-01T05:08:33;3.73;;;3.03;;
10315;SDS011;5203;48.976;8.306;2023-01-01T05:11:03;3.07;;;2.77;;
10315;SDS011;5203;48.976;8.306;2023-01-01T05:13:30;4.37;;;3.20;;
10315;SDS011;5203;48.976;8.306;2023-01-01T05:15:56;3.60;;;3.10;;
10315;SDS011;5203;48.976;8.306;2023-01-01T05:18:26;3.50;;;2.93;;
10315;SDS011;5203;48.976;8.306;2023-01-01T05:20:51;3.50;;;3.20;;
10315;SDS011;5203;48.976;8.306;2023-01-01T05:23:17;3.57;;;3.03;;
10315;SDS011;5203;48.976;8.306;2023-01-01T05:25:43;4.07;;;3.00;;
10315;SDS011;5203;48.976;8.306;2023-01-01T05:28:09;7.43;;;3.23;;
10315;SDS011;5203;48.976;8.306;2023-01-01T05:30:37;3.33;;;2.97;;
10315;SDS011;5203;48.976;8.306;2023-01-01T05:33:04;6.63;;;3.30;;
10315;SDS011;5203;48.976;8.306;2023-01-01T05:35:30;3.27;;;2.97;;
10315;SDS011;5203;48.976;8.306;2023-01-01T05:37:55;3.07;;;2.77;;
10315;SDS011;5203;48.976;8.306;2023-01-01T05:40:21;3.53;;;2.73;;
10315;SDS011;5203;48.976;8.306;2023-01-01T05:42:46;3.53;;;3.10;;
10315;SDS011;5203;48.976;8.306;2023-01-01T05:45:12;4.63;;;3.13;;
10315;SDS011;5203;48.976;8.306;2023-01-01T05:47:38;3.03;;;2.77;;
10315;SDS011;5203;48.976;8.306;2023-01-01T05:50:04;5.23;;;3.27;;
10315;SDS011;5203;48.976;8.306;2023-01-01T05:52:30;3.57;;;3.17;;
10315;SDS011;5203;48.976;8.306;2023-01-01T05:54:56;4.17;;;3.00;;
10315;SDS011;5203;48.976;8.306;2023-01-01T05:57:22;4.27;;;3.00;;
10315;SDS011;5203;48.976;8.306;2023-01-01T05:59:48;4.00;;;3.10;;
10315;SDS011;5203;48.976;8.306;2023-01-01T06:02:14;3.67;;;3.37;;
10315;SDS011;5203;48.976;8.306;2023-01-01T06:04:39;5.43;;;3.43;;
10315;SDS011;5203;48.976;8.306;2023-01-01T06:07:05;3.37;;;3.07;;
10315;SDS011;5203;48.976;8.306;2023-01-01T06:09:30;3.40;;;3.10;;
10315;SDS011;5203;48.976;8.306;2023-01-01T06:11:56;5.13;;;3.10;;
10315;SDS011;5203;48.976;8.306;2023-01-01T06:14:22;3.73;;;3.13;;
10315;SDS011;5203;48.976;8.306;2023-01-01T06:16:51;4.10;;;3.37;;
10315;SDS011;5203;48.976;8.306;2023-01-01T06:19:16;3.80;;;3.33;;
10315;SDS011;5203;48.976;8.306;2023-01-01T06:21:42;3.80;;;3.20;;
10315;SDS011;5203;48.976;8.306;2023-01-01T06:24:07;3.80;;;3.17;;
10315;SDS011;5203;48.976;8.306;2023-01-01T06:26:33;3.13;;;2.93;;
10315;SDS011;5203;48.976;8.306;2023-01-01T06:28:59;3.97;;;3.03;;
10315;SDS011;5203;48.976;8.306;2023-01-01T06:31:27;3.00;;;2.77;;
10315;SDS011;5203;48.976;8.306;2023-01-01T06:33:53;4.33;;;3.20;;
10315;SDS011;5203;48.976;8.306;2023-01-01T06:36:20;4.20;;;2.90;;
10315;SDS011;5203;48.976;8.306;2023-01-01T06:38:48;4.37;;;3.23;;
10315;SDS011;5203;48.976;8.306;2023-01-01T06:41:16;4.27;;;3.00;;
10315;SDS011;5203;48.976;8.306;2023-01-01T06:43:46;2.80;;;2.60;;
10315;SDS011;5203;48.976;8.306;2023-01-01T06:48:47;5.53;;;3.20;;
10315;SDS011;5203;48.976;8.306;2023-01-01T06:51:15;4.33;;;3.10;;
10315;SDS011;5203;48.976;8.306;2023-01-01T06:53:43;4.63;;;3.40;;
10315;SDS011;5203;48.976;8.306;2023-01-01T06:56:10;3.57;;;3.07;;
10315;SDS011;5203;48.976;8.306;2023-01-01T06:58:35;4.93;;;3.17;;
10315;SDS011;5203;48.976;8.306;2023-01-01T07:01:05;4.50;;;3.73;;
10315;SDS011;5203;48.976;8.306;2023-01-01T07:03:33;4.03;;;3.40;;
10315;SDS011;5203;48.976;8.306;2023-01-01T07:05:59;4.23;;;3.27;;
10315;SDS011;5203;48.976;8.306;2023-01-01T07:08:25;3.60;;;3.20;;
10315;SDS011;5203;48.976;8.306;2023-01-01T07:10:51;3.33;;;3.03;;
10315;SDS011;5203;48.976;8.306;2023-01-01T07:13:17;4.87;;;3.10;;
10315;SDS011;5203;48.976;8.306;2023-01-01T07:15:42;4.03;;;3.40;;
10315;SDS011;5203;48.976;8.306;2023-01-01T07:18:08;4.30;;;3.10;;
10315;SDS011;5203;48.976;8.306;2023-01-01T07:20:34;5.00;;;3.13;;
10315;SDS011;5203;48.976;8.306;2023-01-01T07:23:00;4.50;;;3.40;;
10315;SDS011;5203;48.976;8.306;2023-01-01T07:25:28;4.40;;;3.03;;
10315;SDS011;5203;48.976;8.306;2023-01-01T07:27:54;4.17;;;3.30;;
10315;SDS011;5203;48.976;8.306;2023-01-01T07:30:19;4.23;;;3.53;;
10315;SDS011;5203;48.976;8.306;2023-01-01T07:32:45;3.73;;;3.37;;
10315;SDS011;5203;48.976;8.306;2023-01-01T07:35:11;4.27;;;3.60;;
10315;SDS011;5203;48.976;8.306;2023-01-01T07:37:37;3.67;;;3.27;;
10315;SDS011;5203;48.976;8.306;2023-01-01T07:40:02;3.77;;;3.13;;
10315;SDS011;5203;48.976;8.306;2023-01-01T07:42:28;3.83;;;3.53;;
10315;SDS011;5203;48.976;8.306;2023-01-01T07:44:54;4.07;;;3.73;;
10315;SDS011;5203;48.976;8.306;2023-01-01T07:47:22;4.93;;;3.90;;
10315;SDS011;5203;48.976;8.306;2023-01-01T07:49:49;6.40;;;3.93;;
10315;SDS011;5203;48.976;8.306;2023-01-01T07:52:15;4.47;;;3.53;;
10315;SDS011;5203;48.976;8.306;2023-01-01T07:54:42;5.03;;;3.67;;
10315;SDS011;5203;48.976;8.306;2023-01-01T07:57:07;4.40;;;4.00;;
10315;SDS011;5203;48.976;8.306;2023-01-01T07:59:33;4.60;;;3.90;;
10315;SDS011;5203;48.976;8.306;2023-01-01T08:01:59;4.53;;;4.13;;
10315;SDS011;5203;48.976;8.306;2023-01-01T08:04:25;4.50;;;3.83;;
10315;SDS011;5203;48.976;8.306;2023-01-01T08:06:51;5.40;;;4.00;;
10315;SDS011;5203;48.976;8.306;2023-01-01T08:09:18;4.60;;;4.20;;
10315;SDS011;5203;48.976;8.306;2023-01-01T08:11:43;6.10;;;5.03;;
10315;SDS011;5203;48.976;8.306;2023-01-01T08:14:09;4.93;;;4.47;;
10315;SDS011;5203;48.976;8.306;2023-01-01T08:16:35;4.47;;;4.03;;
10315;SDS011;5203;48.976;8.306;2023-01-01T08:19:01;5.60;;;4.80;;
10315;SDS011;5203;48.976;8.306;2023-01-01T08:21:27;5.50;;;4.40;;
10315;SDS011;5203;48.976;8.306;2023-01-01T08:23:52;4.93;;;4.40;;
10315;SDS011;5203;48.976;8.306;2023-01-01T08:26:25;5.13;;;4.63;;
10315;SDS011;5203;48.976;8.306;2023-01-01T08:28:56;5.50;;;4.40;;
10315;SDS011;5203;48.976;8.306;2023-01-01T08:31:22;4.83;;;4.33;;
10315;SDS011;5203;48.976;8.306;2023-01-01T08:33:48;6.87;;;5.03;;
10315;SDS011;5203;48.976;8.306;2023-01-01T08:36:14;4.63;;;4.07;;
10315;SDS011;5203;48.976;8.306;2023-01-01T08:38:40;5.90;;;4.90;;
10315;SDS011;5203;48.976;8.306;2023-01-01T08:41:07;5.77;;;4.67;;
10315;SDS011;5203;48.976;8.306;2023-01-01T08:43:33;5.07;;;4.20;;
10315;SDS011;5203;48.976;8.306;2023-01-01T08:45:58;5.30;;;4.67;;
10315;SDS011;5203;48.976;8.306;2023-01-01T08:48:24;6.73;;;4.67;;
10315;SDS011;5203;48.976;8.306;2023-01-01T08:50:53;5.50;;;4.63;;
10315;SDS011;5203;48.976;8.306;2023-01-01T08:53:19;8.00;;;5.00;;
10315;SDS011;5203;48.976;8.306;2023-01-01T08:55:55;6.03;;;5.03;;
10315;SDS011;5203;48.976;8.306;2023-01-01T08:58:32;5.47;;;4.70;;
10315;SDS011;5203;48.976;8.306;2023-01-01T09:01:03;6.57;;;4.70;;
10315;SDS011;5203;48.976;8.306;2023-01-01T09:03:30;6.60;;;4.90;;
10315;SDS011;5203;48.976;8.306;2023-01-01T09:05:56;7.23;;;4.63;;
10315;SDS011;5203;48.976;8.306;2023-01-01T09:08:21;6.20;;;4.27;;
10315;SDS011;5203;48.976;8.306;2023-01-01T09:10:48;4.47;;;4.07;;
10315;SDS011;5203;48.976;8.306;2023-01-01T09:13:14;5.27;;;4.60;;
10315;SDS011;5203;48.976;8.306;2023-01-01T09:15:42;6.07;;;4.70;;
10315;SDS011;5203;48.976;8.306;2023-01-01T09:18:08;5.83;;;4.70;;
10315;SDS011;5203;48.976;8.306;2023-01-01T09:20:34;5.03;;;4.53;;
10315;SDS011;5203;48.976;8.306;2023-01-01T09:23:00;7.00;;;4.93;;
10315;SDS011;5203;48.976;8.306;2023-01-01T09:25:26;6.07;;;4.63;;
10315;SDS011;5203;48.976;8.306;2023-01-01T09:27:58;4.53;;;4.13;;
10315;SDS011;5203;48.976;8.306;2023-01-01T09:30:28;5.63;;;4.30;;
10315;SDS011;5203;48.976;8.306;2023-01-01T09:32:54;4.50;;;4.10;;
10315;SDS011;5203;48.976;8.306;2023-01-01T09:35:19;5.40;;;4.20;;
10315;SDS011;5203;48.976;8.306;2023-01-01T09:37:45;5.43;;;4.37;;
10315;SDS011;5203;48.976;8.306;2023-01-01T09:46:08;7.20;;;3.83;;
10315;SDS011;5203;48.976;8.306;2023-01-01T09:48:30;6.77;;;4.03;;
10315;SDS011;5203;48.976;8.306;2023-01-01T09:50:57;6.53;;;3.80;;
10315;SDS011;5203;48.976;8.306;2023-01-01T09:53:36;6.67;;;3.70;;
10315;SDS011;5203;48.976;8.306;2023-01-01T09:56:37;4.73;;;3.50;;
10315;SDS011;5203;48.976;8.306;2023-01-01T09:59:08;4.77;;;3.53;;
10315;SDS011;5203;48.976;8.306;2023-01-01T10:01:41;5.90;;;4.00;;
10315;SDS011;5203;48.976;8.306;2023-01-01T10:15:26;3.97;;;3.20;;
10315;SDS011;5203;48.976;8.306;2023-01-01T10:17:57;4.23;;;3.53;;
10315;SDS011;5203;48.976;8.306;2023-01-01T10:20:37;3.80;;;3.40;;
10315;SDS011;5203;48.976;8.306;2023-01-01T10:23:11;5.50;;;3.63;;
10315;SDS011;5203;48.976;8.306;2023-01-01T10:26:07;5.87;;;3.50;;
10315;SDS011;5203;48.976;8.306;2023-01-01T10:31:18;4.57;;;3.87;;
10315;SDS011;5203;48.976;8.306;2023-01-01T10:33:53;4.63;;;3.57;;
10315;SDS011;5203;48.976;8.306;2023-01-01T10:36:19;5.10;;;3.83;;
10315;SDS011;5203;48.976;8.306;2023-01-01T10:38:45;5.23;;;3.57;;
10315;SDS011;5203;48.976;8.306;2023-01-01T10:41:13;4.50;;;3.53;;
10315;SDS011;5203;48.976;8.306;2023-01-01T10:43:39;5.40;;;3.40;;
10315;SDS011;5203;48.976;8.306;2023-01-01T10:46:04;8.90;;;3.63;;
10315;SDS011;5203;48.976;8.306;2023-01-01T10:48:30;4.97;;;3.10;;
10315;SDS011;5203;48.976;8.306;2023-01-01T10:51:03;5.60;;;3.97;;
10315;SDS011;5203;48.976;8.306;2023-01-01T10:55:59;7.17;;;3.30;;
10315;SDS011;5203;48.976;8.306;2023-01-01T11:01:04;4.67;;;3.20;;
10315;SDS011;5203;48.976;8.306;2023-01-01T11:03:32;4.83;;;3.40;;
10315;SDS011;5203;48.976;8.306;2023-01-01T11:08:53;5.33;;;3.40;;
10315;SDS011;5203;48.976;8.306;2023-01-01T11:11:24;7.67;;;5.03;;
10315;SDS011;5203;48.976;8.306;2023-01-01T11:13:52;5.90;;;3.47;;
10315;SDS011;5203;48.976;8.306;2023-01-01T11:16:20;5.97;;;3.33;;
10315;SDS011;5203;48.976;8.306;2023-01-01T11:18:46;5.77;;;3.50;;
10315;SDS011;5203;48.976;8.306;2023-01-01T11:21:18;5.60;;;3.70;;
10315;SDS011;5203;48.976;8.306;2023-01-01T11:23:48;6.80;;;3.60;;
10315;SDS011;5203;48.976;8.306;2023-01-01T11:26:32;6.80;;;3.77;;
10315;SDS011;5203;48.976;8.306;2023-01-01T11:28:58;6.70;;;3.53;;
10315;SDS011;5203;48.976;8.306;2023-01-01T11:31:27;6.80;;;4.17;;
10315;SDS011;5203;48.976;8.306;2023-01-01T11:33:59;8.47;;;3.70;;
10315;SDS011;5203;48.976;8.306;2023-01-01T11:36:30;4.85;;;3.60;;
10315;SDS011;5203;48.976;8.306;2023-01-01T11:41:51;8.05;;;3.75;;
10315;SDS011;5203;48.976;8.306;2023-01-01T11:47:54;7.40;;;3.25;;
10315;SDS011;5203;48.976;8.306;2023-01-01T11:50:21;5.35;;;3.40;;
10315;SDS011;5203;48.976;8.306;2023-01-01T11:52:43;4.18;;;3.78;;
10315;SDS011;5203;48.976;8.306;2023-01-01T11:57:40;5.63;;;3.65;;
10315;SDS011;5203;48.976;8.306;2023-01-01T12:00:15;9.43;;;3.67;;
10315;SDS011;5203;48.976;8.306;2023-01-01T12:02:43;8.82;;;3.72;;
10315;SDS011;5203;48.976;8.306;2023-01-01T12:05:41;5.93;;;3.25;;
10315;SDS011;5203;48.976;8.306;2023-01-01T12:08:09;6.28;;;3.20;;
10315;SDS011;5203;48.976;8.306;2023-01-01T12:10:43;9.63;;;3.80;;
10315;SDS011;5203;48.976;8.306;2023-01-01T12:13:16;4.03;;;3.10;;
10315;SDS011;5203;48.976;8.306;2023-01-01T12:18:43;9.05;;;3.65;;
10315;SDS011;5203;48.976;8.306;2023-01-01T12:21:17;5.60;;;3.63;;
10315;SDS011;5203;48.976;8.306;2023-01-01T12:23:48;6.30;;;3.20;;
10315;SDS011;5203;48.976;8.306;2023-01-01T12:26:48;5.32;;;3.05;;
10315;SDS011;5203;48.976;8.306;2023-01-01T12:32:17;5.45;;;3.70;;
10315;SDS011;5203;48.976;8.306;2023-01-01T12:41:23;4.85;;;3.03;;
10315;SDS011;5203;48.976;8.306;2023-01-01T12:52:43;4.72;;;3.53;;
10315;SDS011;5203;48.976;8.306;2023-01-01T12:55:27;6.32;;;3.42;;
10315;SDS011;5203;48.976;8.306;2023-01-01T12:58:03;8.88;;;3.47;;
10315;SDS011;5203;48.976;8.306;2023-01-01T13:00:39;7.90;;;3.75;;
10315;SDS011;5203;48.976;8.306;2023-01-01T13:03:22;9.07;;;3.53;;
10315;SDS011;5203;48.976;8.306;2023-01-01T13:05:56;9.23;;;3.50;;
10315;SDS011;5203;48.976;8.306;2023-01-01T13:08:24;5.43;;;3.55;;
10315;SDS011;5203;48.976;8.306;2023-01-01T13:10:53;4.60;;;3.78;;
10315;SDS011;5203;48.976;8.306;2023-01-01T13:13:21;8.75;;;4.20;;
10315;SDS011;5203;48.976;8.306;2023-01-01T13:15:48;5.32;;;3.83;;
10315;SDS011;5203;48.976;8.306;2023-01-01T13:23:40;5.32;;;3.10;;
10315;SDS011;5203;48.976;8.306;2023-01-01T14:04:57;5.65;;;3.78;;
10315;SDS011;5203;48.976;8.306;2023-01-01T14:07:46;4.28;;;3.50;;
10315;SDS011;5203;48.976;8.306;2023-01-01T14:12:56;5.13;;;3.53;;
10315;SDS011;5203;48.976;8.306;2023-01-01T14:18:00;8.25;;;3.88;;
10315;SDS011;5203;48.976;8.306;2023-01-01T14:20:51;6.22;;;3.55;;
10315;SDS011;5203;48.976;8.306;2023-01-01T14:23:30;4.05;;;3.25;;
10315;SDS011;5203;48.976;8.306;2023-01-01T14:25:57;5.88;;;4.30;;
10315;SDS011;5203;48.976;8.306;2023-01-01T14:28:43;7.18;;;3.90;;
10315;SDS011;5203;48.976;8.306;2023-01-01T14:31:17;6.00;;;4.00;;
10315;SDS011;5203;48.976;8.306;2023-01-01T14:33:45;11.02;;;4.30;;
10315;SDS011;5203;48.976;8.306;2023-01-01T14:38:48;5.35;;;3.92;;
10315;SDS011;5203;48.976;8.306;2023-01-01T14:41:29;7.75;;;3.58;;
10315;SDS011;5203;48.976;8.306;2023-01-01T14:44:08;6.00;;;3.67;;
10315;SDS011;5203;48.976;8.306;2023-01-01T14:46:55;6.78;;;3.90;;
10315;SDS011;5203;48.976;8.306;2023-01-01T14:49:32;4.53;;;4.10;;
10315;SDS011;5203;48.976;8.306;2023-01-01T14:52:13;5.82;;;4.20;;
10315;SDS011;5203;48.976;8.306;2023-01-01T14:54:49;10.60;;;6.05;;
10315;SDS011;5203;48.976;8.306;2023-01-01T14:57:17;6.90;;;5.10;;
10315;SDS011;5203;48.976;8.306;2023-01-01T14:59:48;7.80;;;6.10;;
10315;SDS011;5203;48.976;8.306;2023-01-01T15:02:25;6.82;;;5.25;;
10315;SDS011;5203;48.976;8.306;2023-01-01T15:04:54;6.95;;;5.07;;
10315;SDS011;5203;48.976;8.306;2023-01-01T15:09:54;4.90;;;4.30;;
10315;SDS011;5203;48.976;8.306;2023-01-01T15:12:21;6.28;;;4.10;;
10315;SDS011;5203;48.976;8.306;2023-01-01T15:14:48;6.88;;;5.15;;
10315;SDS011;5203;48.976;8.306;2023-01-01T15:17:16;6.82;;;5.43;;
10315;SDS011;5203;48.976;8.306;2023-01-01T15:19:45;12.48;;;5.25;;
10315;SDS011;5203;48.976;8.306;2023-01-01T15:24:59;8.65;;;5.90;;
10315;SDS011;5203;48.976;8.306;2023-01-01T15:27:26;8.57;;;6.40;;
10315;SDS011;5203;48.976;8.306;2023-01-01T15:29:54;6.95;;;6.28;;
10315;SDS011;5203;48.976;8.306;2023-01-01T15:32:25;7.10;;;6.07;;
10315;SDS011;5203;48.976;8.306;2023-01-01T15:34:57;7.22;;;5.90;;
10315;SDS011;5203;48.976;8.306;2023-01-01T15:39:58;9.20;;;5.85;;
10315;SDS011;5203;48.976;8.306;2023-01-01T15:42:35;8.60;;;6.80;;
10315;SDS011;5203;48.976;8.306;2023-01-01T15:45:19;10.73;;;7.65;;
10315;SDS011;5203;48.976;8.306;2023-01-01T15:47:53;9.25;;;7.00;;
10315;SDS011;5203;48.976;8.306;2023-01-01T15:53:01;9.90;;;5.93;;
10315;SDS011;5203;48.976;8.306;2023-01-01T15:55:32;6.32;;;5.13;;
10315;SDS011;5203;48.976;8.306;2023-01-01T15:58:01;6.97;;;4.78;;
10315;SDS011;5203;48.976;8.306;2023-01-01T16:00:29;12.15;;;5.70;;
10315;SDS011;5203;48.976;8.306;2023-01-01T16:02:58;5.43;;;4.68;;
10315;SDS011;5203;48.976;8.306;2023-01-01T16:05:27;6.95;;;5.10;;
10315;SDS011;5203;48.976;8.306;2023-01-01T16:07:58;12.13;;;8.07;;
10315;SDS011;5203;48.976;8.306;2023-01-01T16:10:25;9.68;;;7.70;;
10315;SDS011;5203;48.976;8.306;2023-01-01T16:12:50;12.20;;;8.40;;
10315;SDS011;5203;48.976;8.306;2023-01-01T16:15:16;10.13;;;8.15;;
10315;SDS011;5203;48.976;8.306;2023-01-01T16:17:42;7.03;;;6.32;;
10315;SDS011;5203;48.976;8.306;2023-01-01T16:20:12;10.15;;;7.68;;
10315;SDS011;5203;48.976;8.306;2023-01-01T16:22:40;10.43;;;7.30;;
10315;SDS011;5203;48.976;8.306;2023-01-01T16:25:16;9.77;;;8.60;;
10315;SDS011;5203;48.976;8.306;2023-01-01T16:27:43;13.85;;;11.20;;
10315;SDS011;5203;48.976;8.306;2023-01-01T16:30:10;15.25;;;10.98;;
10315;SDS011;5203;48.976;8.306;2023-01-01T16:32:37;14.75;;;12.27;;
10315;SDS011;5203;48.976;8.306;2023-01-01T16:35:03;13.30;;;12.02;;
10315;SDS011;5203;48.976;8.306;2023-01-01T16:37:31;15.32;;;13.05;;
10315;SDS011;5203;48.976;8.306;2023-01-01T16:39:57;17.10;;;11.70;;
10315;SDS011;5203;48.976;8.306;2023-01-01T16:42:23;15.18;;;10.38;;
10315;SDS011;5203;48.976;8.306;2023-01-01T16:44:48;11.30;;;9.82;;
10315;SDS011;5203;48.976;8.306;2023-01-01T16:47:15;11.33;;;10.13;;
10315;SDS011;5203;48.976;8.306;2023-01-01T16:49:41;13.53;;;9.30;;
10315;SDS011;5203;48.976;8.306;2023-01-01T16:52:07;14.10;;;11.50;;
10315;SDS011;5203;48.976;8.306;2023-01-01T16:54:33;10.50;;;9.53;;
10315;SDS011;5203;48.976;8.306;2023-01-01T16:57:00;12.10;;;10.87;;
10315;SDS011;5203;48.976;8.306;2023-01-01T16:59:25;14.50;;;12.50;;
10315;SDS011;5203;48.976;8.306;2023-01-01T17:01:51;13.03;;;11.30;;
10315;SDS011;5203;48.976;8.306;2023-01-01T17:04:17;13.67;;;11.20;;
10315;SDS011;5203;48.976;8.306;2023-01-01T17:06:43;16.40;;;11.43;;
10315;SDS011;5203;48.976;8.306;2023-01-01T17:09:08;16.90;;;11.17;;
10315;SDS011;5203;48.976;8.306;2023-01-01T17:11:34;13.20;;;10.43;;
10315;SDS011;5203;48.976;8.306;2023-01-01T17:14:00;12.13;;;10.83;;
10315;SDS011;5203;48.976;8.306;2023-01-01T17:16:30;10.37;;;8.97;;
10315;SDS011;5203;48.976;8.306;2023-01-01T17:18:56;16.83;;;10.97;;
10315;SDS011;5203;48.976;8.306;2023-01-01T17:21:22;13.40;;;9.90;;
10315;SDS011;5203;48.976;8.306;2023-01-01T17:23:49;13.60;;;12.17;;
10315;SDS011;5203;48.976;8.306;2023-01-01T17:26:16;11.70;;;10.57;;
10315;SDS011;5203;48.976;8.306;2023-01-01T17:28:44;15.57;;;10.50;;
10315;SDS011;5203;48.976;8.306;2023-01-01T17:31:11;12.10;;;10.70;;
10315;SDS011;5203;48.976;8.306;2023-01-01T17:33:39;10.33;;;8.87;;
10315;SDS011;5203;48.976;8.306;2023-01-01T17:36:05;15.73;;;12.30;;
10315;SDS011;5203;48.976;8.306;2023-01-01T17:38:32;21.00;;;16.80;;
10315;SDS011;5203;48.976;8.306;2023-01-01T17:43:34;25.77;;;19.57;;
10315;SDS011;5203;48.976;8.306;2023-01-01T17:46:20;19.93;;;15.43;;
10315;SDS011;5203;48.976;8.306;2023-01-01T17:48:57;20.30;;;17.10;;
10315;SDS011;5203;48.976;8.306;2023-01-01T17:51:24;20.70;;;16.50;;
10315;SDS011;5203;48.976;8.306;2023-01-01T17:53:50;18.90;;;14.10;;
10315;SDS011;5203;48.976;8.306;2023-01-01T17:56:16;21.93;;;17.07;;
10315;SDS011;5203;48.976;8.306;2023-01-01T17:58:43;16.50;;;12.07;;